Terminal Aerodrome Forecast
Issued by NWS

Home | Current Version | Previous Version | Text Only | Print | Product List | Glossary On
Versions: 1 2 3 4 5 6 7 8 9 10 11 12 13 14 15
000
FTPA31 PHFO 201740
TAFHJH
TAF
PHJH 201740Z 2018/2118 VRB05KT P6SM BKN040
     FM202100 02010G18KT P6SM VCSH SCT025 BKN045
     FM210400 02015G23KT P6SM SCT025 BKN045
      AMD NOT SKED AFT 210400=

USA.gov is the U.S. government's official web portal to all federal, state and local government web resources and services.